KCIU/CIU METAR and TAF weather

Enter ICAO airport designator
Station Type Date Time Source
KCIU METAR 2022/01/27 10:56 UTC NOAA

KCIU 271056Z AUTO 24012G21KT 3SM -SN BR OVC016 M07/M08 A2978 RMK AO2 SLPNO P0000 T10671083 FZRANO


Station Type Date Time Source
KCIU Decoded METAR 2022/01/27 10:56 UTC NOAA

Sault Ste Marie, Chippewa County International Airport, MI, United States (KCIU) 46-15N 084-28W
Jan 27, 2022 - 05:56 AM EST / 2022.01.27 1056 UTC
Wind: from the WSW (240 degrees) at 14 MPH (12 KT) gusting to 24 MPH (21 KT):0
Visibility: 3 mile(s):0
Sky conditions: overcast
Weather: light snow; mist
Precipitation last hour: A trace
Temperature: 19.9 F (-6.7 C)
Windchill: 6 F (-14 C):1
Dew Point: 17.1 F (-8.3 C)
Relative Humidity: 88%
Pressure (altimeter): 29.78 in. Hg (1008 hPa)
ob: KCIU 271056Z AUTO 24012G21KT 3SM -SN BR OVC016 M07/M08 A2978 RMK AO2 SLPNO P0000 T10671083 FZRANO
cycle: 11

Station Type Date Time Source
KCIU TAF UTC NOAA

Error!

Example: see airport list